sensor_id;sensor_type;location;lat;lon;timestamp;temperature;humidity
2130;DHT22;1071;52.544;13.374;2024-01-25T00:01:31;10.40;99.90
2130;DHT22;1071;52.544;13.374;2024-01-25T00:03:58;10.40;99.90
2130;DHT22;1071;52.544;13.374;2024-01-25T00:06:25;10.40;99.90
2130;DHT22;1071;52.544;13.374;2024-01-25T00:08:53;10.40;99.90
2130;DHT22;1071;52.544;13.374;2024-01-25T00:11:32;10.40;99.90
2130;DHT22;1071;52.544;13.374;2024-01-25T00:14:00;10.40;99.90
2130;DHT22;1071;52.544;13.374;2024-01-25T00:16:29;10.40;99.90
2130;DHT22;1071;52.544;13.374;2024-01-25T00:18:56;10.30;99.90
2130;DHT22;1071;52.544;13.374;2024-01-25T00:21:23;10.40;99.90
2130;DHT22;1071;52.544;13.374;2024-01-25T00:23:51;10.40;99.90
2130;DHT22;1071;52.544;13.374;2024-01-25T00:26:21;10.40;99.90
2130;DHT22;1071;52.544;13.374;2024-01-25T00:28:49;10.30;99.90
2130;DHT22;1071;52.544;13.374;2024-01-25T00:31:16;10.30;99.90
2130;DHT22;1071;52.544;13.374;2024-01-25T00:33:43;10.20;99.90
2130;DHT22;1071;52.544;13.374;2024-01-25T00:36:12;10.20;99.90
2130;DHT22;1071;52.544;13.374;2024-01-25T00:38:39;10.30;99.90
2130;DHT22;1071;52.544;13.374;2024-01-25T00:41:08;10.20;99.90
2130;DHT22;1071;52.544;13.374;2024-01-25T00:43:36;10.30;99.90
2130;DHT22;1071;52.544;13.374;2024-01-25T00:46:06;10.30;99.90
2130;DHT22;1071;52.544;13.374;2024-01-25T00:48:34;10.30;99.90
2130;DHT22;1071;52.544;13.374;2024-01-25T00:51:02;10.40;99.90
2130;DHT22;1071;52.544;13.374;2024-01-25T00:53:35;10.30;99.90
2130;DHT22;1071;52.544;13.374;2024-01-25T00:56:03;10.30;99.90
2130;DHT22;1071;52.544;13.374;2024-01-25T00:58:34;10.40;99.90
2130;DHT22;1071;52.544;13.374;2024-01-25T01:01:21;10.40;99.90
2130;DHT22;1071;52.544;13.374;2024-01-25T01:03:58;10.40;99.90
2130;DHT22;1071;52.544;13.374;2024-01-25T01:09:01;10.30;99.90
2130;DHT22;1071;52.544;13.374;2024-01-25T01:11:29;10.30;99.90
2130;DHT22;1071;52.544;13.374;2024-01-25T01:13:59;10.20;99.90
2130;DHT22;1071;52.544;13.374;2024-01-25T01:16:28;10.20;99.90
2130;DHT22;1071;52.544;13.374;2024-01-25T01:19:05;10.20;99.90
2130;DHT22;1071;52.544;13.374;2024-01-25T01:21:33;10.20;99.90
2130;DHT22;1071;52.544;13.374;2024-01-25T01:24:04;10.20;99.90
2130;DHT22;1071;52.544;13.374;2024-01-25T01:26:31;10.20;99.90
2130;DHT22;1071;52.544;13.374;2024-01-25T01:29:01;10.20;99.90
2130;DHT22;1071;52.544;13.374;2024-01-25T01:31:30;10.10;99.90
2130;DHT22;1071;52.544;13.374;2024-01-25T01:34:00;10.10;99.90
2130;DHT22;1071;52.544;13.374;2024-01-25T01:36:39;10.20;99.90
2130;DHT22;1071;52.544;13.374;2024-01-25T01:39:06;10.10;99.90
2130;DHT22;1071;52.544;13.374;2024-01-25T01:41:36;10.10;99.90
2130;DHT22;1071;52.544;13.374;2024-01-25T01:44:04;10.20;99.90
2130;DHT22;1071;52.544;13.374;2024-01-25T01:46:36;10.20;99.90
2130;DHT22;1071;52.544;13.374;2024-01-25T01:49:08;10.20;99.90
2130;DHT22;1071;52.544;13.374;2024-01-25T01:51:35;10.20;99.90
2130;DHT22;1071;52.544;13.374;2024-01-25T01:54:06;10.20;99.90
2130;DHT22;1071;52.544;13.374;2024-01-25T01:56:35;10.20;99.90
2130;DHT22;1071;52.544;13.374;2024-01-25T01:59:05;10.20;99.90
2130;DHT22;1071;52.544;13.374;2024-01-25T02:01:37;10.20;99.90
2130;DHT22;1071;52.544;13.374;2024-01-25T02:04:07;10.20;99.90
2130;DHT22;1071;52.544;13.374;2024-01-25T02:06:34;10.20;99.90
2130;DHT22;1071;52.544;13.374;2024-01-25T02:09:01;10.20;99.90
2130;DHT22;1071;52.544;13.374;2024-01-25T02:11:28;10.20;99.90
2130;DHT22;1071;52.544;13.374;2024-01-25T02:13:55;10.30;99.90
2130;DHT22;1071;52.544;13.374;2024-01-25T02:16:23;10.30;99.90
2130;DHT22;1071;52.544;13.374;2024-01-25T02:18:51;10.40;99.90
2130;DHT22;1071;52.544;13.374;2024-01-25T02:21:23;10.40;99.90
2130;DHT22;1071;52.544;13.374;2024-01-25T02:23:52;10.40;99.90
2130;DHT22;1071;52.544;13.374;2024-01-25T02:26:19;10.40;99.90
2130;DHT22;1071;52.544;13.374;2024-01-25T02:28:47;10.50;99.90
2130;DHT22;1071;52.544;13.374;2024-01-25T02:31:14;10.50;99.90
2130;DHT22;1071;52.544;13.374;2024-01-25T02:33:41;10.50;99.90
2130;DHT22;1071;52.544;13.374;2024-01-25T02:36:08;10.50;99.90
2130;DHT22;1071;52.544;13.374;2024-01-25T02:38:35;10.60;99.90
2130;DHT22;1071;52.544;13.374;2024-01-25T02:41:04;10.50;99.90
2130;DHT22;1071;52.544;13.374;2024-01-25T02:43:31;10.50;99.90
2130;DHT22;1071;52.544;13.374;2024-01-25T02:45:58;10.60;99.90
2130;DHT22;1071;52.544;13.374;2024-01-25T02:48:25;10.60;99.90
2130;DHT22;1071;52.544;13.374;2024-01-25T02:50:52;10.60;99.90
2130;DHT22;1071;52.544;13.374;2024-01-25T02:53:19;10.60;99.90
2130;DHT22;1071;52.544;13.374;2024-01-25T02:55:46;10.60;99.90
2130;DHT22;1071;52.544;13.374;2024-01-25T02:58:15;10.70;99.90
2130;DHT22;1071;52.544;13.374;2024-01-25T03:00:42;10.60;99.90
2130;DHT22;1071;52.544;13.374;2024-01-25T03:03:09;10.60;99.90
2130;DHT22;1071;52.544;13.374;2024-01-25T03:05:36;10.60;99.90
2130;DHT22;1071;52.544;13.374;2024-01-25T03:08:04;10.60;99.90
2130;DHT22;1071;52.544;13.374;2024-01-25T03:10:31;10.50;99.90
2130;DHT22;1071;52.544;13.374;2024-01-25T03:12:58;10.40;99.90
2130;DHT22;1071;52.544;13.374;2024-01-25T03:15:27;10.40;99.90
2130;DHT22;1071;52.544;13.374;2024-01-25T03:17:54;10.40;99.90
2130;DHT22;1071;52.544;13.374;2024-01-25T03:20:21;10.40;99.90
2130;DHT22;1071;52.544;13.374;2024-01-25T03:22:48;10.30;99.90
2130;DHT22;1071;52.544;13.374;2024-01-25T03:25:18;10.30;99.90
2130;DHT22;1071;52.544;13.374;2024-01-25T03:27:45;10.30;99.90
2130;DHT22;1071;52.544;13.374;2024-01-25T03:30:13;10.30;99.90
2130;DHT22;1071;52.544;13.374;2024-01-25T03:32:41;10.20;99.90
2130;DHT22;1071;52.544;13.374;2024-01-25T03:35:08;10.20;99.90
2130;DHT22;1071;52.544;13.374;2024-01-25T03:37:35;10.20;99.90
2130;DHT22;1071;52.544;13.374;2024-01-25T03:40:04;10.10;99.90
2130;DHT22;1071;52.544;13.374;2024-01-25T03:42:30;10.10;99.90
2130;DHT22;1071;52.544;13.374;2024-01-25T03:44:57;10.10;99.90
2130;DHT22;1071;52.544;13.374;2024-01-25T03:47:24;10.10;99.90
2130;DHT22;1071;52.544;13.374;2024-01-25T03:49:53;10.10;99.90
2130;DHT22;1071;52.544;13.374;2024-01-25T03:52:20;10.10;99.90
2130;DHT22;1071;52.544;13.374;2024-01-25T03:54:47;10.20;99.90
2130;DHT22;1071;52.544;13.374;2024-01-25T03:57:14;10.20;99.90
2130;DHT22;1071;52.544;13.374;2024-01-25T03:59:41;10.20;99.90
2130;DHT22;1071;52.544;13.374;2024-01-25T04:02:08;10.20;99.90
2130;DHT22;1071;52.544;13.374;2024-01-25T04:04:36;10.20;99.90
2130;DHT22;1071;52.544;13.374;2024-01-25T04:07:04;10.30;99.90
2130;DHT22;1071;52.544;13.374;2024-01-25T04:09:32;10.20;99.90
2130;DHT22;1071;52.544;13.374;2024-01-25T04:11:59;10.20;99.90
2130;DHT22;1071;52.544;13.374;2024-01-25T04:14:26;10.30;99.90
2130;DHT22;1071;52.544;13.374;2024-01-25T04:16:53;10.30;99.90
2130;DHT22;1071;52.544;13.374;2024-01-25T04:19:20;10.30;99.90
2130;DHT22;1071;52.544;13.374;2024-01-25T04:21:47;10.20;99.90
2130;DHT22;1071;52.544;13.374;2024-01-25T04:24:16;10.20;99.90
2130;DHT22;1071;52.544;13.374;2024-01-25T04:26:43;10.20;99.90
2130;DHT22;1071;52.544;13.374;2024-01-25T04:29:10;10.20;99.90
2130;DHT22;1071;52.544;13.374;2024-01-25T04:31:42;10.10;99.90
2130;DHT22;1071;52.544;13.374;2024-01-25T04:34:10;10.10;99.90
2130;DHT22;1071;52.544;13.374;2024-01-25T04:36:37;10.20;99.90
2130;DHT22;1071;52.544;13.374;2024-01-25T04:39:05;10.20;99.90
2130;DHT22;1071;52.544;13.374;2024-01-25T04:41:33;10.10;99.90
2130;DHT22;1071;52.544;13.374;2024-01-25T04:44:00;10.10;99.90
2130;DHT22;1071;52.544;13.374;2024-01-25T04:46:28;10.00;99.90
2130;DHT22;1071;52.544;13.374;2024-01-25T04:49:01;10.00;99.90
2130;DHT22;1071;52.544;13.374;2024-01-25T04:51:28;10.00;99.90
2130;DHT22;1071;52.544;13.374;2024-01-25T04:53:55;10.00;99.90
2130;DHT22;1071;52.544;13.374;2024-01-25T04:56:22;10.00;99.90
2130;DHT22;1071;52.544;13.374;2024-01-25T04:58:51;10.00;99.90
2130;DHT22;1071;52.544;13.374;2024-01-25T05:01:18;9.90;99.90
2130;DHT22;1071;52.544;13.374;2024-01-25T05:03:45;9.90;99.90
2130;DHT22;1071;52.544;13.374;2024-01-25T05:06:12;9.90;99.90
2130;DHT22;1071;52.544;13.374;2024-01-25T05:08:41;9.90;99.90
2130;DHT22;1071;52.544;13.374;2024-01-25T05:11:08;9.90;99.90
2130;DHT22;1071;52.544;13.374;2024-01-25T05:13:37;10.00;99.90
2130;DHT22;1071;52.544;13.374;2024-01-25T05:16:05;10.00;99.90
2130;DHT22;1071;52.544;13.374;2024-01-25T05:18:32;10.00;99.90
2130;DHT22;1071;52.544;13.374;2024-01-25T05:21:00;10.00;99.90
2130;DHT22;1071;52.544;13.374;2024-01-25T05:23:27;10.10;99.90
2130;DHT22;1071;52.544;13.374;2024-01-25T05:25:54;10.10;99.90
2130;DHT22;1071;52.544;13.374;2024-01-25T05:28:21;10.20;99.90
2130;DHT22;1071;52.544;13.374;2024-01-25T05:30:49;10.20;99.90
2130;DHT22;1071;52.544;13.374;2024-01-25T05:33:18;10.20;99.90
2130;DHT22;1071;52.544;13.374;2024-01-25T05:35:45;10.30;99.90
2130;DHT22;1071;52.544;13.374;2024-01-25T05:38:12;10.30;99.90
2130;DHT22;1071;52.544;13.374;2024-01-25T05:40:39;10.30;99.90
2130;DHT22;1071;52.544;13.374;2024-01-25T05:43:06;10.30;99.90
2130;DHT22;1071;52.544;13.374;2024-01-25T05:45:33;10.30;99.90
2130;DHT22;1071;52.544;13.374;2024-01-25T05:48:00;10.20;99.90
2130;DHT22;1071;52.544;13.374;2024-01-25T05:50:28;10.20;99.90
2130;DHT22;1071;52.544;13.374;2024-01-25T05:52:59;10.20;99.90
2130;DHT22;1071;52.544;13.374;2024-01-25T05:55:25;10.20;99.90
2130;DHT22;1071;52.544;13.374;2024-01-25T05:57:52;10.10;99.90
2130;DHT22;1071;52.544;13.374;2024-01-25T06:00:20;10.10;99.90
2130;DHT22;1071;52.544;13.374;2024-01-25T06:02:47;10.00;99.90
2130;DHT22;1071;52.544;13.374;2024-01-25T06:05:17;10.00;99.90
2130;DHT22;1071;52.544;13.374;2024-01-25T06:07:45;10.00;99.90
2130;DHT22;1071;52.544;13.374;2024-01-25T06:10:16;10.00;99.90
2130;DHT22;1071;52.544;13.374;2024-01-25T06:12:43;10.10;99.90
2130;DHT22;1071;52.544;13.374;2024-01-25T06:15:10;10.10;99.90
2130;DHT22;1071;52.544;13.374;2024-01-25T06:17:37;10.10;99.90
2130;DHT22;1071;52.544;13.374;2024-01-25T06:20:04;10.10;99.90
2130;DHT22;1071;52.544;13.374;2024-01-25T06:22:31;10.10;99.90
2130;DHT22;1071;52.544;13.374;2024-01-25T06:25:00;10.10;99.90
2130;DHT22;1071;52.544;13.374;2024-01-25T06:27:29;10.10;99.90
2130;DHT22;1071;52.544;13.374;2024-01-25T06:29:56;10.10;99.90
2130;DHT22;1071;52.544;13.374;2024-01-25T06:32:23;10.10;99.90
2130;DHT22;1071;52.544;13.374;2024-01-25T06:34:50;10.10;99.90
2130;DHT22;1071;52.544;13.374;2024-01-25T06:37:18;10.10;99.90
2130;DHT22;1071;52.544;13.374;2024-01-25T06:39:46;10.10;99.90
2130;DHT22;1071;52.544;13.374;2024-01-25T06:42:14;10.10;99.90
2130;DHT22;1071;52.544;13.374;2024-01-25T06:44:43;10.20;99.90
2130;DHT22;1071;52.544;13.374;2024-01-25T06:47:10;10.10;99.90
2130;DHT22;1071;52.544;13.374;2024-01-25T06:49:37;10.00;99.90
2130;DHT22;1071;52.544;13.374;2024-01-25T06:52:06;10.10;99.90
2130;DHT22;1071;52.544;13.374;2024-01-25T06:54:33;10.00;99.90
2130;DHT22;1071;52.544;13.374;2024-01-25T06:57:00;10.00;99.90
2130;DHT22;1071;52.544;13.374;2024-01-25T06:59:29;10.00;99.90
2130;DHT22;1071;52.544;13.374;2024-01-25T07:01:57;10.00;99.90
2130;DHT22;1071;52.544;13.374;2024-01-25T07:04:24;10.00;99.90
2130;DHT22;1071;52.544;13.374;2024-01-25T07:06:51;10.00;99.90
2130;DHT22;1071;52.544;13.374;2024-01-25T07:09:18;10.00;99.90
2130;DHT22;1071;52.544;13.374;2024-01-25T07:11:45;9.90;99.90
2130;DHT22;1071;52.544;13.374;2024-01-25T07:14:12;10.00;99.90
2130;DHT22;1071;52.544;13.374;2024-01-25T07:16:40;9.90;99.90
2130;DHT22;1071;52.544;13.374;2024-01-25T07:19:10;10.00;99.90
2130;DHT22;1071;52.544;13.374;2024-01-25T07:21:38;10.00;99.90
2130;DHT22;1071;52.544;13.374;2024-01-25T07:24:06;10.00;99.90
2130;DHT22;1071;52.544;13.374;2024-01-25T07:26:33;10.10;99.90
2130;DHT22;1071;52.544;13.374;2024-01-25T07:29:02;10.00;99.90
2130;DHT22;1071;52.544;13.374;2024-01-25T07:31:29;10.00;99.90
2130;DHT22;1071;52.544;13.374;2024-01-25T07:33:58;10.00;99.90
2130;DHT22;1071;52.544;13.374;2024-01-25T07:36:25;10.00;99.90
2130;DHT22;1071;52.544;13.374;2024-01-25T07:38:52;10.00;99.90
2130;DHT22;1071;52.544;13.374;2024-01-25T07:41:20;10.00;99.90
2130;DHT22;1071;52.544;13.374;2024-01-25T07:43:47;10.10;99.90
2130;DHT22;1071;52.544;13.374;2024-01-25T07:46:14;10.00;99.90
2130;DHT22;1071;52.544;13.374;2024-01-25T07:48:41;10.10;99.90
2130;DHT22;1071;52.544;13.374;2024-01-25T07:51:12;10.10;99.90
2130;DHT22;1071;52.544;13.374;2024-01-25T07:53:40;10.10;99.90
2130;DHT22;1071;52.544;13.374;2024-01-25T07:56:07;10.20;99.90
2130;DHT22;1071;52.544;13.374;2024-01-25T07:58:35;10.20;99.90
2130;DHT22;1071;52.544;13.374;2024-01-25T08:01:03;10.20;99.90
2130;DHT22;1071;52.544;13.374;2024-01-25T08:03:31;10.20;99.90
2130;DHT22;1071;52.544;13.374;2024-01-25T08:05:59;10.20;99.90
2130;DHT22;1071;52.544;13.374;2024-01-25T08:08:27;10.30;99.90
2130;DHT22;1071;52.544;13.374;2024-01-25T08:10:54;10.20;99.90
2130;DHT22;1071;52.544;13.374;2024-01-25T08:13:21;10.30;99.90
2130;DHT22;1071;52.544;13.374;2024-01-25T08:15:48;10.20;99.90
2130;DHT22;1071;52.544;13.374;2024-01-25T08:18:15;10.10;99.90
2130;DHT22;1071;52.544;13.374;2024-01-25T08:20:44;10.10;99.90
2130;DHT22;1071;52.544;13.374;2024-01-25T08:23:12;10.10;99.90
2130;DHT22;1071;52.544;13.374;2024-01-25T08:25:40;10.20;99.90
2130;DHT22;1071;52.544;13.374;2024-01-25T08:28:07;10.20;99.90
2130;DHT22;1071;52.544;13.374;2024-01-25T08:30:34;10.10;99.90
2130;DHT22;1071;52.544;13.374;2024-01-25T08:33:02;10.10;99.90
2130;DHT22;1071;52.544;13.374;2024-01-25T08:35:32;10.10;99.90
2130;DHT22;1071;52.544;13.374;2024-01-25T08:37:59;10.10;99.90
2130;DHT22;1071;52.544;13.374;2024-01-25T08:40:26;10.00;99.90
2130;DHT22;1071;52.544;13.374;2024-01-25T08:42:54;10.10;99.90
2130;DHT22;1071;52.544;13.374;2024-01-25T08:45:22;10.10;99.90
2130;DHT22;1071;52.544;13.374;2024-01-25T08:47:49;10.10;99.90
2130;DHT22;1071;52.544;13.374;2024-01-25T08:50:17;10.10;99.90
2130;DHT22;1071;52.544;13.374;2024-01-25T08:52:44;10.10;99.90
2130;DHT22;1071;52.544;13.374;2024-01-25T08:55:14;10.10;99.90
2130;DHT22;1071;52.544;13.374;2024-01-25T08:57:41;10.00;99.90
2130;DHT22;1071;52.544;13.374;2024-01-25T09:00:10;10.10;99.90
2130;DHT22;1071;52.544;13.374;2024-01-25T09:02:38;10.10;99.90
2130;DHT22;1071;52.544;13.374;2024-01-25T09:05:06;10.10;99.90
2130;DHT22;1071;52.544;13.374;2024-01-25T09:07:34;10.10;99.90
2130;DHT22;1071;52.544;13.374;2024-01-25T09:10:02;10.10;99.90
2130;DHT22;1071;52.544;13.374;2024-01-25T09:12:30;10.10;99.90
2130;DHT22;1071;52.544;13.374;2024-01-25T09:14:57;10.20;99.90
2130;DHT22;1071;52.544;13.374;2024-01-25T09:17:25;10.20;99.90
2130;DHT22;1071;52.544;13.374;2024-01-25T09:19:53;10.20;99.90
2130;DHT22;1071;52.544;13.374;2024-01-25T09:22:20;10.10;99.90
2130;DHT22;1071;52.544;13.374;2024-01-25T09:24:47;10.20;99.90
2130;DHT22;1071;52.544;13.374;2024-01-25T09:27:15;10.20;99.90
2130;DHT22;1071;52.544;13.374;2024-01-25T09:29:42;10.20;99.90
2130;DHT22;1071;52.544;13.374;2024-01-25T09:32:11;10.20;99.90
2130;DHT22;1071;52.544;13.374;2024-01-25T09:34:39;10.30;99.90
2130;DHT22;1071;52.544;13.374;2024-01-25T09:37:07;10.30;99.90
2130;DHT22;1071;52.544;13.374;2024-01-25T09:39:37;10.40;99.90
2130;DHT22;1071;52.544;13.374;2024-01-25T09:42:05;10.40;99.90
2130;DHT22;1071;52.544;13.374;2024-01-25T09:44:32;10.40;99.90
2130;DHT22;1071;52.544;13.374;2024-01-25T09:47:03;10.40;99.90
2130;DHT22;1071;52.544;13.374;2024-01-25T09:49:31;10.30;99.90
2130;DHT22;1071;52.544;13.374;2024-01-25T09:52:04;10.40;99.90
2130;DHT22;1071;52.544;13.374;2024-01-25T09:54:34;10.40;99.90
2130;DHT22;1071;52.544;13.374;2024-01-25T09:57:05;10.40;99.90
2130;DHT22;1071;52.544;13.374;2024-01-25T09:59:33;10.40;99.90
2130;DHT22;1071;52.544;13.374;2024-01-25T10:02:01;10.50;99.90
2130;DHT22;1071;52.544;13.374;2024-01-25T10:04:29;10.40;99.90
2130;DHT22;1071;52.544;13.374;2024-01-25T10:06:58;10.50;99.90
2130;DHT22;1071;52.544;13.374;2024-01-25T10:09:25;10.50;99.90
2130;DHT22;1071;52.544;13.374;2024-01-25T10:11:55;10.50;99.90
2130;DHT22;1071;52.544;13.374;2024-01-25T10:14:23;10.50;99.90
2130;DHT22;1071;52.544;13.374;2024-01-25T10:16:50;10.50;99.90
2130;DHT22;1071;52.544;13.374;2024-01-25T10:19:17;10.50;99.90
2130;DHT22;1071;52.544;13.374;2024-01-25T10:21:44;10.50;99.90
2130;DHT22;1071;52.544;13.374;2024-01-25T10:24:13;10.50;99.90
2130;DHT22;1071;52.544;13.374;2024-01-25T10:26:41;10.50;99.90
2130;DHT22;1071;52.544;13.374;2024-01-25T10:29:14;10.50;99.90
2130;DHT22;1071;52.544;13.374;2024-01-25T10:31:42;10.50;99.90
2130;DHT22;1071;52.544;13.374;2024-01-25T10:34:13;10.50;99.90
2130;DHT22;1071;52.544;13.374;2024-01-25T10:36:41;10.50;99.90
2130;DHT22;1071;52.544;13.374;2024-01-25T10:39:09;10.50;99.90
2130;DHT22;1071;52.544;13.374;2024-01-25T10:41:39;10.60;99.90
2130;DHT22;1071;52.544;13.374;2024-01-25T10:44:07;10.60;99.90
2130;DHT22;1071;52.544;13.374;2024-01-25T10:46:38;10.60;99.90
2130;DHT22;1071;52.544;13.374;2024-01-25T10:49:13;10.50;99.90
2130;DHT22;1071;52.544;13.374;2024-01-25T10:51:41;10.50;99.90
2130;DHT22;1071;52.544;13.374;2024-01-25T10:54:08;10.60;99.90
2130;DHT22;1071;52.544;13.374;2024-01-25T10:56:46;10.60;99.90
2130;DHT22;1071;52.544;13.374;2024-01-25T10:59:15;10.70;99.90
2130;DHT22;1071;52.544;13.374;2024-01-25T11:01:44;10.70;99.90
2130;DHT22;1071;52.544;13.374;2024-01-25T11:04:16;10.80;99.90
2130;DHT22;1071;52.544;13.374;2024-01-25T11:06:45;10.70;99.90
2130;DHT22;1071;52.544;13.374;2024-01-25T11:09:17;10.80;99.90
2130;DHT22;1071;52.544;13.374;2024-01-25T11:11:48;10.70;99.90
2130;DHT22;1071;52.544;13.374;2024-01-25T11:14:16;10.70;99.90
2130;DHT22;1071;52.544;13.374;2024-01-25T11:16:44;10.80;99.90
2130;DHT22;1071;52.544;13.374;2024-01-25T11:19:17;10.80;99.90
2130;DHT22;1071;52.544;13.374;2024-01-25T11:21:45;10.80;99.90
2130;DHT22;1071;52.544;13.374;2024-01-25T11:24:13;10.90;99.90
2130;DHT22;1071;52.544;13.374;2024-01-25T11:26:42;10.90;99.90
2130;DHT22;1071;52.544;13.374;2024-01-25T11:29:13;10.90;99.90
2130;DHT22;1071;52.544;13.374;2024-01-25T11:31:41;10.90;99.90
2130;DHT22;1071;52.544;13.374;2024-01-25T11:34:10;10.90;99.90
2130;DHT22;1071;52.544;13.374;2024-01-25T11:36:38;10.90;99.90
2130;DHT22;1071;52.544;13.374;2024-01-25T11:39:06;11.00;99.90
2130;DHT22;1071;52.544;13.374;2024-01-25T11:41:33;10.90;99.90
2130;DHT22;1071;52.544;13.374;2024-01-25T11:44:01;11.00;99.90
2130;DHT22;1071;52.544;13.374;2024-01-25T11:46:30;11.00;99.90
2130;DHT22;1071;52.544;13.374;2024-01-25T11:48:58;11.00;99.90
2130;DHT22;1071;52.544;13.374;2024-01-25T11:51:25;10.90;99.90
2130;DHT22;1071;52.544;13.374;2024-01-25T11:53:56;10.90;99.90
2130;DHT22;1071;52.544;13.374;2024-01-25T11:56:25;10.90;99.90
2130;DHT22;1071;52.544;13.374;2024-01-25T11:58:56;10.90;99.90
2130;DHT22;1071;52.544;13.374;2024-01-25T12:01:27;10.90;99.90
2130;DHT22;1071;52.544;13.374;2024-01-25T12:03:56;10.90;99.90
2130;DHT22;1071;52.544;13.374;2024-01-25T12:06:23;11.00;99.90
2130;DHT22;1071;52.544;13.374;2024-01-25T12:08:54;11.00;99.90
2130;DHT22;1071;52.544;13.374;2024-01-25T12:11:21;10.90;99.90
2130;DHT22;1071;52.544;13.374;2024-01-25T12:13:48;10.90;99.90
2130;DHT22;1071;52.544;13.374;2024-01-25T12:16:16;11.00;99.90
2130;DHT22;1071;52.544;13.374;2024-01-25T12:18:43;11.00;99.90
2130;DHT22;1071;52.544;13.374;2024-01-25T12:21:14;11.00;99.90
2130;DHT22;1071;52.544;13.374;2024-01-25T12:23:42;11.10;99.90
2130;DHT22;1071;52.544;13.374;2024-01-25T12:26:13;11.10;99.90
2130;DHT22;1071;52.544;13.374;2024-01-25T12:28:41;11.10;99.90
2130;DHT22;1071;52.544;13.374;2024-01-25T12:31:15;11.10;99.90
2130;DHT22;1071;52.544;13.374;2024-01-25T12:33:43;11.10;99.90
2130;DHT22;1071;52.544;13.374;2024-01-25T12:36:10;11.10;99.90
2130;DHT22;1071;52.544;13.374;2024-01-25T12:38:38;11.10;99.90
2130;DHT22;1071;52.544;13.374;2024-01-25T12:41:06;11.10;99.90
2130;DHT22;1071;52.544;13.374;2024-01-25T12:43:33;11.20;99.90
2130;DHT22;1071;52.544;13.374;2024-01-25T12:46:00;11.20;99.90
2130;DHT22;1071;52.544;13.374;2024-01-25T12:48:28;11.20;99.90
2130;DHT22;1071;52.544;13.374;2024-01-25T12:50:58;11.10;99.90
2130;DHT22;1071;52.544;13.374;2024-01-25T12:53:25;11.20;99.90
2130;DHT22;1071;52.544;13.374;2024-01-25T12:55:54;11.20;99.90
2130;DHT22;1071;52.544;13.374;2024-01-25T12:58:21;11.20;99.90
2130;DHT22;1071;52.544;13.374;2024-01-25T13:00:49;11.20;99.90
2130;DHT22;1071;52.544;13.374;2024-01-25T13:03:16;11.20;99.90
2130;DHT22;1071;52.544;13.374;2024-01-25T13:05:43;11.20;99.90
2130;DHT22;1071;52.544;13.374;2024-01-25T13:08:10;11.20;99.90
2130;DHT22;1071;52.544;13.374;2024-01-25T13:10:37;11.10;99.90
2130;DHT22;1071;52.544;13.374;2024-01-25T13:13:06;11.10;99.90
2130;DHT22;1071;52.544;13.374;2024-01-25T13:15:33;11.20;99.90
2130;DHT22;1071;52.544;13.374;2024-01-25T13:18:00;11.20;99.90
2130;DHT22;1071;52.544;13.374;2024-01-25T13:20:27;11.20;99.90
2130;DHT22;1071;52.544;13.374;2024-01-25T13:22:54;11.20;99.90
2130;DHT22;1071;52.544;13.374;2024-01-25T13:25:22;11.20;99.90
2130;DHT22;1071;52.544;13.374;2024-01-25T13:27:49;11.20;99.90
2130;DHT22;1071;52.544;13.374;2024-01-25T13:30:18;11.20;99.90
2130;DHT22;1071;52.544;13.374;2024-01-25T13:32:45;11.10;99.90
2130;DHT22;1071;52.544;13.374;2024-01-25T13:35:13;11.10;99.90
2130;DHT22;1071;52.544;13.374;2024-01-25T13:37:43;11.00;99.90
2130;DHT22;1071;52.544;13.374;2024-01-25T13:40:10;11.00;99.90
2130;DHT22;1071;52.544;13.374;2024-01-25T13:42:37;11.00;99.90
2130;DHT22;1071;52.544;13.374;2024-01-25T13:45:07;11.00;99.90
2130;DHT22;1071;52.544;13.374;2024-01-25T13:47:36;10.90;99.90
2130;DHT22;1071;52.544;13.374;2024-01-25T13:50:03;10.90;99.90
2130;DHT22;1071;52.544;13.374;2024-01-25T13:52:30;10.90;99.90
2130;DHT22;1071;52.544;13.374;2024-01-25T13:54:57;10.80;99.90
2130;DHT22;1071;52.544;13.374;2024-01-25T13:57:25;10.80;99.90
2130;DHT22;1071;52.544;13.374;2024-01-25T13:59:52;10.80;99.90
2130;DHT22;1071;52.544;13.374;2024-01-25T14:02:21;10.80;99.90
2130;DHT22;1071;52.544;13.374;2024-01-25T14:04:50;10.80;99.90
2130;DHT22;1071;52.544;13.374;2024-01-25T14:07:17;10.80;99.90
2130;DHT22;1071;52.544;13.374;2024-01-25T14:09:44;10.70;99.90
2130;DHT22;1071;52.544;13.374;2024-01-25T14:12:14;10.80;99.90
2130;DHT22;1071;52.544;13.374;2024-01-25T14:14:41;10.80;99.90
2130;DHT22;1071;52.544;13.374;2024-01-25T14:17:08;10.80;99.90
2130;DHT22;1071;52.544;13.374;2024-01-25T14:19:35;10.80;99.90
2130;DHT22;1071;52.544;13.374;2024-01-25T14:22:04;10.80;99.90
2130;DHT22;1071;52.544;13.374;2024-01-25T14:24:31;10.70;99.90
2130;DHT22;1071;52.544;13.374;2024-01-25T14:26:58;10.70;99.90
2130;DHT22;1071;52.544;13.374;2024-01-25T14:29:25;10.70;99.90
2130;DHT22;1071;52.544;13.374;2024-01-25T14:31:55;10.60;99.90
2130;DHT22;1071;52.544;13.374;2024-01-25T14:34:23;10.70;99.90
2130;DHT22;1071;52.544;13.374;2024-01-25T14:36:50;10.60;99.90
2130;DHT22;1071;52.544;13.374;2024-01-25T14:39:22;10.70;99.90
2130;DHT22;1071;52.544;13.374;2024-01-25T14:41:49;10.60;99.90
2130;DHT22;1071;52.544;13.374;2024-01-25T14:44:18;10.60;99.90
2130;DHT22;1071;52.544;13.374;2024-01-25T14:46:45;10.50;99.90
2130;DHT22;1071;52.544;13.374;2024-01-25T14:49:12;10.50;99.90
2130;DHT22;1071;52.544;13.374;2024-01-25T14:51:39;10.50;99.90
2130;DHT22;1071;52.544;13.374;2024-01-25T14:54:11;10.50;99.90
2130;DHT22;1071;52.544;13.374;2024-01-25T14:56:47;10.60;99.90
2130;DHT22;1071;52.544;13.374;2024-01-25T14:59:15;10.60;99.90
2130;DHT22;1071;52.544;13.374;2024-01-25T15:01:42;10.50;99.90
2130;DHT22;1071;52.544;13.374;2024-01-25T15:04:11;10.60;99.90
2130;DHT22;1071;52.544;13.374;2024-01-25T15:06:39;10.50;99.90
2130;DHT22;1071;52.544;13.374;2024-01-25T15:09:09;10.40;99.90
2130;DHT22;1071;52.544;13.374;2024-01-25T15:11:39;10.40;99.90
2130;DHT22;1071;52.544;13.374;2024-01-25T15:14:21;10.30;99.90
2130;DHT22;1071;52.544;13.374;2024-01-25T15:16:48;10.30;99.90
2130;DHT22;1071;52.544;13.374;2024-01-25T15:19:15;10.30;99.90
2130;DHT22;1071;52.544;13.374;2024-01-25T15:21:42;10.30;99.90
2130;DHT22;1071;52.544;13.374;2024-01-25T15:24:09;10.30;99.90
2130;DHT22;1071;52.544;13.374;2024-01-25T15:26:41;10.30;99.90
2130;DHT22;1071;52.544;13.374;2024-01-25T15:29:08;10.30;99.90
2130;DHT22;1071;52.544;13.374;2024-01-25T15:31:38;10.40;99.90
2130;DHT22;1071;52.544;13.374;2024-01-25T15:34:06;10.40;99.90
2130;DHT22;1071;52.544;13.374;2024-01-25T15:36:33;10.40;99.90
2130;DHT22;1071;52.544;13.374;2024-01-25T15:39:01;10.50;99.90
2130;DHT22;1071;52.544;13.374;2024-01-25T15:41:29;10.50;99.90
2130;DHT22;1071;52.544;13.374;2024-01-25T15:43:57;10.50;99.90
2130;DHT22;1071;52.544;13.374;2024-01-25T15:46:24;10.50;99.90
2130;DHT22;1071;52.544;13.374;2024-01-25T15:48:51;10.50;99.90
2130;DHT22;1071;52.544;13.374;2024-01-25T15:51:20;10.40;99.90
2130;DHT22;1071;52.544;13.374;2024-01-25T15:54:04;10.40;99.90
2130;DHT22;1071;52.544;13.374;2024-01-25T15:56:31;10.50;99.90